Portola, California
Current Conditions -  °F | °C
As of 6:15 AM on Thursday 23 Oct 2014 (Local Time) from KRTS Reporting Station
Clear Clear  
Wind Chill: 54°   Ceiling: Unl
Heat Index: 54°   Visibility: 10mi
Dew Point: 27°   Wind: 0mph
Humidity: 35%   Direction: NA
Pressure: 30.11"   Gusts: NA
Location:  39.81°N, 120.47°W
Report Text: KRTS 231315Z AUTO 00000KT 10SM CLR 12/M03 A3011 RMK AO2
Loading
Personal Weather Stations






























Interactive Weather Map
Tropical Storm Tracking
New forecast layout! Learn more

10-Day Weather Forecast

Advertisements
Track Severe Weather on mobile